createdAt,value
2023-04-02T00:00:47.304Z,988.19
2023-04-02T00:01:47.338Z,988.17
2023-04-02T00:02:47.324Z,988.21
2023-04-02T00:03:47.332Z,988.23
2023-04-02T00:04:47.287Z,988.25
2023-04-02T00:05:47.243Z,988.27
2023-04-02T00:06:47.254Z,988.27
2023-04-02T00:07:47.218Z,988.30
2023-04-02T00:08:47.233Z,988.33
2023-04-02T00:09:47.241Z,988.34
2023-04-02T00:10:47.227Z,988.37
2023-04-02T00:11:47.229Z,988.39
2023-04-02T00:12:47.189Z,988.39
2023-04-02T00:13:47.149Z,988.42
2023-04-02T00:14:47.165Z,988.47
2023-04-02T00:15:47.153Z,988.46
2023-04-02T00:16:47.267Z,988.49
2023-04-02T00:17:47.122Z,988.51
2023-04-02T00:18:47.124Z,988.53
2023-04-02T00:19:47.084Z,988.56
2023-04-02T00:20:47.096Z,988.58
2023-04-02T00:21:47.110Z,988.58
2023-04-02T00:22:47.082Z,988.60
2023-04-02T00:23:47.049Z,988.63
2023-04-02T00:24:47.056Z,988.63
2023-04-02T00:25:47.026Z,988.66
2023-04-02T00:26:47.070Z,988.69
2023-04-02T00:27:47.042Z,988.72
2023-04-02T00:28:47.020Z,988.73
2023-04-02T00:29:46.980Z,988.76
2023-04-02T00:30:46.999Z,988.76
2023-04-02T00:31:47.075Z,988.78
2023-04-02T00:32:47.014Z,988.80
2023-04-02T00:33:46.933Z,988.81
2023-04-02T00:34:46.962Z,988.83
2023-04-02T00:35:46.955Z,988.84
2023-04-02T00:36:46.938Z,988.84
2023-04-02T00:37:46.919Z,988.87
2023-04-02T00:38:48.274Z,988.88
2023-04-02T00:39:46.885Z,988.90
2023-04-02T00:40:46.889Z,988.89
2023-04-02T00:41:46.957Z,988.92
2023-04-02T00:42:46.873Z,988.93
2023-04-02T00:43:46.903Z,988.93
2023-04-02T00:44:46.844Z,988.95
2023-04-02T00:45:46.857Z,988.94
2023-04-02T00:46:47.294Z,988.97
2023-04-02T00:47:46.870Z,988.99
2023-04-02T00:48:46.807Z,988.99
2023-04-02T00:49:46.797Z,989.00
2023-04-02T00:50:46.790Z,989.03
2023-04-02T00:51:46.755Z,989.05
2023-04-02T00:52:46.766Z,989.05
2023-04-02T00:53:46.753Z,989.07
2023-04-02T00:54:46.748Z,989.07
2023-04-02T00:55:46.710Z,989.11
2023-04-02T00:56:46.730Z,989.13
2023-04-02T00:57:46.756Z,989.13
2023-04-02T00:58:46.734Z,989.17
2023-04-02T00:59:46.681Z,989.16
2023-04-02T01:00:46.699Z,989.19
2023-04-02T01:01:46.721Z,989.22
2023-04-02T01:02:46.723Z,989.23
2023-04-02T01:03:46.752Z,989.26
2023-04-02T01:04:46.635Z,989.23
2023-04-02T01:05:46.628Z,989.24
2023-04-02T01:06:46.625Z,989.29
2023-04-02T01:07:46.587Z,989.30
2023-04-02T01:08:46.597Z,989.30
2023-04-02T01:09:46.587Z,989.31
2023-04-02T01:10:46.570Z,989.32
2023-04-02T01:11:46.540Z,989.34
2023-04-02T01:12:46.555Z,989.33
2023-04-02T01:13:46.523Z,989.37
2023-04-02T01:14:46.572Z,989.40
2023-04-02T01:15:46.570Z,989.41
2023-04-02T01:16:46.512Z,989.42
2023-04-02T01:17:46.502Z,989.45
2023-04-02T01:18:46.521Z,989.47
2023-04-02T01:19:46.487Z,989.48
2023-04-02T01:20:46.494Z,989.51
2023-04-02T01:21:46.463Z,989.53
2023-04-02T01:22:46.474Z,989.55
2023-04-02T01:23:46.422Z,989.56
2023-04-02T01:24:46.427Z,989.56
2023-04-02T01:25:46.427Z,989.59
2023-04-02T01:26:46.408Z,989.62
2023-04-02T01:27:46.368Z,989.67
2023-04-02T01:28:46.395Z,989.69
2023-04-02T01:29:46.377Z,989.70
2023-04-02T01:30:46.374Z,989.72
2023-04-02T01:31:46.441Z,989.73
2023-04-02T01:32:46.421Z,989.76
2023-04-02T01:33:46.331Z,989.77
2023-04-02T01:34:46.332Z,989.79
2023-04-02T01:35:46.312Z,989.79
2023-04-02T01:36:46.314Z,989.81
2023-04-02T01:37:46.265Z,989.84
2023-04-02T01:38:46.281Z,989.88
2023-04-02T01:39:46.268Z,989.87
2023-04-02T01:40:46.269Z,989.91
2023-04-02T01:41:46.241Z,989.93
2023-04-02T01:42:46.285Z,989.94
2023-04-02T01:43:46.204Z,989.98
2023-04-02T01:44:46.219Z,989.99
2023-04-02T01:45:46.185Z,990.02
2023-04-02T01:46:46.256Z,990.06
2023-04-02T01:47:46.202Z,990.10
2023-04-02T01:48:46.185Z,990.11
2023-04-02T01:49:46.133Z,990.13
2023-04-02T01:50:46.168Z,990.14
2023-04-02T01:51:46.124Z,990.18
2023-04-02T01:52:46.151Z,990.19
2023-04-02T01:53:46.116Z,990.23
2023-04-02T01:54:46.103Z,990.24
2023-04-02T01:55:46.088Z,990.26
2023-04-02T01:56:46.082Z,990.28
2023-04-02T01:57:46.056Z,990.28
2023-04-02T01:58:46.091Z,990.32
2023-04-02T01:59:46.037Z,990.28
2023-04-02T02:00:46.068Z,990.35
2023-04-02T02:01:46.083Z,990.33
2023-04-02T02:02:46.342Z,990.38
2023-04-02T02:03:46.012Z,990.41
2023-04-02T02:04:46.006Z,990.41
2023-04-02T02:05:45.963Z,990.44
2023-04-02T02:06:45.999Z,990.43
2023-04-02T02:07:45.948Z,990.45
2023-04-02T02:08:45.965Z,990.49
2023-04-02T02:09:45.961Z,990.51
2023-04-02T02:10:45.934Z,990.53
2023-04-02T02:11:45.916Z,990.55
2023-04-02T02:12:45.928Z,990.58
2023-04-02T02:13:45.912Z,990.60
2023-04-02T02:14:45.899Z,990.65
2023-04-02T02:15:45.890Z,990.63
2023-04-02T02:16:45.934Z,990.64
2023-04-02T02:17:45.873Z,990.68
2023-04-02T02:18:45.862Z,990.69
2023-04-02T02:19:45.828Z,990.71
2023-04-02T02:20:45.857Z,990.74
2023-04-02T02:21:45.810Z,990.76
2023-04-02T02:22:45.833Z,990.78
2023-04-02T02:23:45.805Z,990.80
2023-04-02T02:24:45.835Z,990.81
2023-04-02T02:25:45.790Z,990.82
2023-04-02T02:26:45.792Z,990.84
2023-04-02T02:27:45.777Z,990.87
2023-04-02T02:28:45.758Z,990.88
2023-04-02T02:29:45.760Z,990.90
2023-04-02T02:30:45.746Z,990.92
2023-04-02T02:31:45.719Z,990.95
2023-04-02T02:32:45.811Z,990.97
2023-04-02T02:33:45.709Z,991.02
2023-04-02T02:34:45.698Z,991.00
2023-04-02T02:35:45.684Z,991.03
2023-04-02T02:36:45.688Z,991.06
2023-04-02T02:37:45.645Z,991.08
2023-04-02T02:38:45.660Z,991.10
2023-04-02T02:39:45.637Z,991.14
2023-04-02T02:40:45.652Z,991.14
2023-04-02T02:41:45.626Z,991.16
2023-04-02T02:42:45.611Z,991.20
2023-04-02T02:43:45.585Z,991.20
2023-04-02T02:44:45.594Z,991.24
2023-04-02T02:45:45.572Z,991.26
2023-04-02T02:46:45.858Z,991.27
2023-04-02T02:47:45.669Z,991.29
2023-04-02T02:48:45.551Z,991.30
2023-04-02T02:49:45.523Z,991.33
2023-04-02T02:50:45.540Z,991.34
2023-04-02T02:51:46.053Z,991.37
2023-04-02T02:52:45.518Z,991.39
2023-04-02T02:53:45.475Z,991.41
2023-04-02T02:54:45.496Z,991.42
2023-04-02T02:55:45.452Z,991.44
2023-04-02T02:56:45.485Z,991.46
2023-04-02T02:57:45.468Z,991.48
2023-04-02T02:58:45.440Z,991.48
2023-04-02T02:59:45.462Z,991.51
2023-04-02T03:00:45.435Z,991.53
2023-04-02T03:01:45.461Z,991.55
2023-04-02T03:02:45.509Z,991.57
2023-04-02T03:03:45.576Z,991.60
2023-04-02T03:04:45.445Z,991.59
2023-04-02T03:05:45.348Z,991.65
2023-04-02T03:06:45.357Z,991.65
2023-04-02T03:07:45.321Z,991.68
2023-04-02T03:08:45.381Z,991.70
2023-04-02T03:09:45.320Z,991.74
2023-04-02T03:10:45.319Z,991.75
2023-04-02T03:11:45.290Z,991.76
2023-04-02T03:12:45.316Z,991.77
2023-04-02T03:13:45.288Z,991.78
2023-04-02T03:14:45.308Z,991.79
2023-04-02T03:15:45.251Z,991.82
2023-04-02T03:16:45.264Z,991.84
2023-04-02T03:17:45.284Z,991.86
2023-04-02T03:18:45.240Z,991.89
2023-04-02T03:19:45.213Z,991.92
2023-04-02T03:20:45.225Z,991.94
2023-04-02T03:21:45.183Z,991.95
2023-04-02T03:22:45.215Z,992.01
2023-04-02T03:23:45.211Z,992.02
2023-04-02T03:24:45.182Z,992.03
2023-04-02T03:25:45.145Z,992.09
2023-04-02T03:26:45.164Z,992.09
2023-04-02T03:27:45.143Z,992.09
2023-04-02T03:28:45.176Z,992.11
2023-04-02T03:29:45.100Z,992.14
2023-04-02T03:30:45.131Z,992.15
2023-04-02T03:31:45.112Z,992.18
2023-04-02T03:32:45.122Z,992.19
2023-04-02T03:33:45.064Z,992.22
2023-04-02T03:34:45.100Z,992.24
2023-04-02T03:35:45.051Z,992.25
2023-04-02T03:36:45.054Z,992.28
2023-04-02T03:37:45.023Z,992.28
2023-04-02T03:38:45.039Z,992.32
2023-04-02T03:39:45.008Z,992.34
2023-04-02T03:40:45.039Z,992.36
2023-04-02T03:41:44.996Z,992.37
2023-04-02T03:42:44.997Z,992.40
2023-04-02T03:43:44.964Z,992.42
2023-04-02T03:44:44.969Z,992.45
2023-04-02T03:45:44.989Z,992.47
2023-04-02T03:46:45.021Z,992.48
2023-04-02T03:47:44.984Z,992.49
2023-04-02T03:48:44.940Z,992.52
2023-04-02T03:49:44.928Z,992.52
2023-04-02T03:50:44.911Z,992.54
2023-04-02T03:51:44.878Z,992.57
2023-04-02T03:52:44.899Z,992.61
2023-04-02T03:53:44.860Z,992.61
2023-04-02T03:54:53.916Z,992.63
2023-04-02T03:55:44.879Z,992.64
2023-04-02T03:56:44.857Z,992.65
2023-04-02T03:57:44.807Z,992.67
2023-04-02T03:58:44.836Z,992.70
2023-04-02T03:59:44.820Z,992.70
2023-04-02T04:00:44.807Z,992.71
2023-04-02T04:01:44.838Z,992.72
2023-04-02T04:02:44.795Z,992.73
2023-04-02T04:03:44.796Z,992.77
2023-04-02T04:04:44.745Z,992.77
2023-04-02T04:05:44.755Z,992.79
2023-04-02T04:06:44.742Z,992.82
2023-04-02T04:07:44.745Z,992.86
2023-04-02T04:08:44.702Z,992.86
2023-04-02T04:09:44.720Z,992.90
2023-04-02T04:10:44.696Z,992.92
2023-04-02T04:11:44.714Z,992.93
2023-04-02T04:12:44.682Z,992.94
2023-04-02T04:13:44.687Z,992.98
2023-04-02T04:14:45.341Z,993.00
2023-04-02T04:15:44.643Z,993.01
2023-04-02T04:16:44.711Z,993.03
2023-04-02T04:17:44.681Z,993.06
2023-04-02T04:18:44.593Z,993.05
2023-04-02T04:19:44.611Z,993.10
2023-04-02T04:20:44.576Z,993.12
2023-04-02T04:21:44.583Z,993.15
2023-04-02T04:22:44.578Z,993.17
2023-04-02T04:23:44.599Z,993.20
2023-04-02T04:24:44.549Z,993.21
2023-04-02T04:25:44.583Z,993.25
2023-04-02T04:26:44.524Z,993.27
2023-04-02T04:27:44.552Z,993.28
2023-04-02T04:28:44.496Z,993.31
2023-04-02T04:29:44.505Z,993.30
2023-04-02T04:30:44.469Z,993.32
2023-04-02T04:31:44.492Z,993.33
2023-04-02T04:32:44.484Z,993.34
2023-04-02T04:33:44.485Z,993.38
2023-04-02T04:34:44.428Z,993.40
2023-04-02T04:35:44.464Z,993.44
2023-04-02T04:36:44.451Z,993.43
2023-04-02T04:37:44.377Z,993.47
2023-04-02T04:38:44.385Z,993.52
2023-04-02T04:39:44.396Z,993.53
2023-04-02T04:40:44.396Z,993.56
2023-04-02T04:41:44.352Z,993.57
2023-04-02T04:42:44.290Z,993.59
2023-04-02T04:43:44.303Z,993.64
2023-04-02T04:44:44.297Z,993.64
2023-04-02T04:45:44.308Z,993.70
2023-04-02T04:46:44.252Z,993.71
2023-04-02T04:47:44.394Z,993.71
2023-04-02T04:48:44.283Z,993.75
2023-04-02T04:49:44.306Z,993.79
2023-04-02T04:50:44.238Z,993.82
2023-04-02T04:51:44.221Z,993.84
2023-04-02T04:52:44.187Z,993.87
2023-04-02T04:53:44.199Z,993.87
2023-04-02T04:54:44.189Z,993.90
2023-04-02T04:55:44.206Z,993.93
2023-04-02T04:56:44.148Z,993.95
2023-04-02T04:57:44.158Z,993.99
2023-04-02T04:58:44.126Z,994.02
2023-04-02T04:59:44.142Z,994.03
2023-04-02T05:00:44.211Z,994.06
2023-04-02T05:01:44.160Z,994.04
2023-04-02T05:02:44.141Z,994.11
2023-04-02T05:03:44.102Z,994.13
2023-04-02T05:04:44.098Z,994.14
2023-04-02T05:05:44.072Z,994.15
2023-04-02T05:06:44.084Z,994.17
2023-04-02T05:07:44.063Z,994.16
2023-04-02T05:08:44.032Z,994.18
2023-04-02T05:09:44.052Z,994.21
2023-04-02T05:10:44.023Z,994.24
2023-04-02T05:11:44.016Z,994.25
2023-04-02T05:12:43.981Z,994.26
2023-04-02T05:13:43.999Z,994.29
2023-04-02T05:14:43.962Z,994.31
2023-04-02T05:15:44.012Z,994.31
2023-04-02T05:16:43.978Z,994.34
2023-04-02T05:17:44.010Z,994.39
2023-04-02T05:18:43.916Z,994.36
2023-04-02T05:19:43.934Z,994.38
2023-04-02T05:20:43.897Z,994.41
2023-04-02T05:21:43.921Z,994.46
2023-04-02T05:22:43.917Z,994.50
2023-04-02T05:23:43.898Z,994.51
2023-04-02T05:24:43.877Z,994.57
2023-04-02T05:25:43.874Z,994.58
2023-04-02T05:26:43.844Z,994.61
2023-04-02T05:27:43.858Z,994.62
2023-04-02T05:28:44.369Z,994.63
2023-04-02T05:29:44.337Z,994.68
2023-04-02T05:30:43.802Z,994.70
2023-04-02T05:31:43.880Z,994.70
2023-04-02T05:32:43.916Z,994.74
2023-04-02T05:33:43.794Z,994.75
2023-04-02T05:34:43.754Z,994.78
2023-04-02T05:35:43.800Z,994.79
2023-04-02T05:36:43.736Z,994.81
2023-04-02T05:37:43.771Z,994.85
2023-04-02T05:38:43.731Z,994.88
2023-04-02T05:39:43.726Z,994.89
2023-04-02T05:40:43.741Z,994.96
2023-04-02T05:41:43.770Z,994.94
2023-04-02T05:42:43.673Z,994.96
2023-04-02T05:43:43.684Z,995.00
2023-04-02T05:44:43.675Z,994.99
2023-04-02T05:45:43.670Z,995.07
2023-04-02T05:46:43.682Z,995.07
2023-04-02T05:47:43.681Z,995.07
2023-04-02T05:48:43.619Z,995.10
2023-04-02T05:49:43.620Z,995.11
2023-04-02T05:50:43.631Z,995.14
2023-04-02T05:51:43.609Z,995.17
2023-04-02T05:52:43.569Z,995.16
2023-04-02T05:53:43.581Z,995.18
2023-04-02T05:54:43.557Z,995.21
2023-04-02T05:55:43.605Z,995.21
2023-04-02T05:56:43.531Z,995.23
2023-04-02T05:57:49.689Z,995.24
2023-04-02T05:58:45.506Z,995.26
2023-04-02T05:59:43.526Z,995.30
2023-04-02T06:00:43.626Z,995.33
2023-04-02T06:01:43.532Z,995.33
2023-04-02T06:02:43.544Z,995.35
2023-04-02T06:03:43.606Z,995.35
2023-04-02T06:04:43.444Z,995.36
2023-04-02T06:05:43.452Z,995.43
2023-04-02T06:06:43.460Z,995.43
2023-04-02T06:07:43.442Z,995.47
2023-04-02T06:08:43.415Z,995.47
2023-04-02T06:09:43.418Z,995.49
2023-04-02T06:10:43.376Z,995.47
2023-04-02T06:11:43.414Z,995.52
2023-04-02T06:12:43.382Z,995.55
2023-04-02T06:13:43.386Z,995.56
2023-04-02T06:14:43.339Z,995.57
2023-04-02T06:15:43.699Z,995.59
2023-04-02T06:16:43.364Z,995.63
2023-04-02T06:17:43.403Z,995.61
2023-04-02T06:18:43.288Z,995.63
2023-04-02T06:19:43.304Z,995.69
2023-04-02T06:20:43.279Z,995.67
2023-04-02T06:21:43.282Z,995.75
2023-04-02T06:22:43.266Z,995.76
2023-04-02T06:23:43.292Z,995.80
2023-04-02T06:24:43.234Z,995.79
2023-04-02T06:25:43.241Z,995.79
2023-04-02T06:26:43.208Z,995.83
2023-04-02T06:27:43.227Z,995.87
2023-04-02T06:28:43.257Z,995.90
2023-04-02T06:29:43.210Z,995.95
2023-04-02T06:30:43.193Z,995.96
2023-04-02T06:31:43.180Z,995.99
2023-04-02T06:32:43.200Z,996.01
2023-04-02T06:33:43.157Z,996.04
2023-04-02T06:34:43.151Z,996.06
2023-04-02T06:35:43.156Z,996.06
2023-04-02T06:36:43.111Z,996.09
2023-04-02T06:37:43.124Z,996.13
2023-04-02T06:38:43.134Z,996.16
2023-04-02T06:39:43.135Z,996.17
2023-04-02T06:40:43.068Z,996.15
2023-04-02T06:41:43.075Z,996.21
2023-04-02T06:42:43.044Z,996.22
2023-04-02T06:43:43.076Z,996.24
2023-04-02T06:44:43.073Z,996.23
2023-04-02T06:45:43.085Z,996.28
2023-04-02T06:46:43.030Z,996.31
2023-04-02T06:47:43.057Z,996.32
2023-04-02T06:48:42.984Z,996.36
2023-04-02T06:49:43.027Z,996.39
2023-04-02T06:50:42.962Z,996.40
2023-04-02T06:51:42.974Z,996.47
2023-04-02T06:52:42.943Z,996.47
2023-04-02T06:53:42.968Z,996.48
2023-04-02T06:54:43.064Z,996.53
2023-04-02T06:55:42.931Z,996.57
2023-04-02T06:56:42.904Z,996.58
2023-04-02T06:57:43.059Z,996.63
2023-04-02T06:58:42.876Z,996.65
2023-04-02T06:59:42.894Z,996.70
2023-04-02T07:00:42.876Z,996.72
2023-04-02T07:01:42.926Z,996.76
2023-04-02T07:02:42.933Z,996.79
2023-04-02T07:03:42.852Z,996.83
2023-04-02T07:04:42.859Z,996.84
2023-04-02T07:05:43.170Z,996.84
2023-04-02T07:06:42.803Z,996.86
2023-04-02T07:07:42.812Z,996.92
2023-04-02T07:08:42.781Z,996.94
2023-04-02T07:09:42.789Z,996.98
2023-04-02T07:10:42.750Z,996.99
2023-04-02T07:11:42.788Z,997.01
2023-04-02T07:12:42.737Z,997.03
2023-04-02T07:13:42.749Z,997.04
2023-04-02T07:14:42.720Z,997.08
2023-04-02T07:15:42.742Z,997.11
2023-04-02T07:16:42.714Z,997.11
2023-04-02T07:17:42.764Z,997.11
2023-04-02T07:18:42.667Z,997.15
2023-04-02T07:19:42.677Z,997.18
2023-04-02T07:20:42.655Z,997.19
2023-04-02T07:21:42.682Z,997.22
2023-04-02T07:22:42.645Z,997.25
2023-04-02T07:23:42.655Z,997.27
2023-04-02T07:24:42.650Z,997.27
2023-04-02T07:25:42.665Z,997.30
2023-04-02T07:26:42.592Z,997.32
2023-04-02T07:27:42.596Z,997.33
2023-04-02T07:28:42.566Z,997.34
2023-04-02T07:29:42.619Z,997.36
2023-04-02T07:30:42.549Z,997.36
2023-04-02T07:31:42.644Z,997.41
2023-04-02T07:32:42.564Z,997.39
2023-04-02T07:33:42.536Z,997.43
2023-04-02T07:34:42.499Z,997.43
2023-04-02T07:35:42.538Z,997.46
2023-04-02T07:36:42.474Z,997.49
2023-04-02T07:37:42.529Z,997.43
2023-04-02T07:38:42.577Z,997.48
2023-04-02T07:39:42.502Z,997.50
2023-04-02T07:40:42.435Z,997.53
2023-04-02T07:41:42.452Z,997.51
2023-04-02T07:42:42.423Z,997.58
2023-04-02T07:43:42.436Z,997.60
2023-04-02T07:44:42.436Z,997.62
2023-04-02T07:45:42.431Z,997.65
2023-04-02T07:46:42.441Z,997.66
2023-04-02T07:47:42.428Z,997.69
2023-04-02T07:48:42.350Z,997.70
2023-04-02T07:49:42.406Z,997.75
2023-04-02T07:50:42.372Z,997.76
2023-04-02T07:51:42.343Z,997.75
2023-04-02T07:52:42.321Z,997.80
2023-04-02T07:53:42.333Z,997.83
2023-04-02T07:54:42.306Z,997.87
2023-04-02T07:55:42.298Z,997.87
2023-04-02T07:56:42.308Z,997.91
2023-04-02T07:57:44.295Z,997.91
2023-04-02T07:58:42.269Z,997.95
2023-04-02T07:59:42.260Z,997.96
2023-04-02T08:00:42.962Z,997.97
2023-04-02T08:01:42.262Z,997.99
2023-04-02T08:02:42.226Z,998.00
2023-04-02T08:03:42.276Z,998.04
2023-04-02T08:04:42.219Z,998.06
2023-04-02T08:05:42.201Z,998.10
2023-04-02T08:06:42.172Z,998.08
2023-04-02T08:07:42.178Z,998.14
2023-04-02T08:08:42.144Z,998.17
2023-04-02T08:09:42.197Z,998.19
2023-04-02T08:10:42.137Z,998.21
2023-04-02T08:11:42.183Z,998.22
2023-04-02T08:12:42.105Z,998.25
2023-04-02T08:13:42.124Z,998.26
2023-04-02T08:14:42.094Z,998.30
2023-04-02T08:15:42.108Z,998.32
2023-04-02T08:16:42.163Z,998.34
2023-04-02T08:17:42.125Z,998.36
2023-04-02T08:18:42.067Z,998.39
2023-04-02T08:19:54.249Z,998.42
2023-04-02T08:20:42.085Z,998.43
2023-04-02T08:21:42.057Z,998.46
2023-04-02T08:22:42.036Z,998.48
2023-04-02T08:23:42.000Z,998.47
2023-04-02T08:24:42.016Z,998.49
2023-04-02T08:25:42.020Z,998.48
2023-04-02T08:26:43.982Z,998.51
2023-04-02T08:27:42.002Z,998.54
2023-04-02T08:28:41.967Z,998.52
2023-04-02T08:29:41.939Z,998.56
2023-04-02T08:30:41.987Z,998.57
2023-04-02T08:31:41.921Z,998.57
2023-04-02T08:32:42.015Z,998.57
2023-04-02T08:33:41.928Z,998.59
2023-04-02T08:34:41.913Z,998.60
2023-04-02T08:35:41.938Z,998.61
2023-04-02T08:36:41.883Z,998.63
2023-04-02T08:37:41.869Z,998.63
2023-04-02T08:38:41.892Z,998.64
2023-04-02T08:39:41.875Z,998.64
2023-04-02T08:40:41.838Z,998.67
2023-04-02T08:41:41.811Z,998.68
2023-04-02T08:42:41.818Z,998.69
2023-04-02T08:43:41.811Z,998.70
2023-04-02T08:44:41.803Z,998.73
2023-04-02T08:45:42.071Z,998.74
2023-04-02T08:46:41.783Z,998.76
2023-04-02T08:47:41.772Z,998.78
2023-04-02T08:48:42.688Z,998.79
2023-04-02T08:49:41.725Z,998.84
2023-04-02T08:50:41.736Z,998.85
2023-04-02T08:51:41.713Z,998.86
2023-04-02T08:52:41.731Z,998.88
2023-04-02T08:53:41.680Z,998.90
2023-04-02T08:54:41.724Z,998.93
2023-04-02T08:55:41.684Z,998.94
2023-04-02T08:56:41.670Z,998.96
2023-04-02T08:57:41.642Z,998.98
2023-04-02T08:58:41.683Z,998.99
2023-04-02T08:59:41.644Z,999.02
2023-04-02T09:00:41.627Z,999.04
2023-04-02T09:01:41.683Z,999.03
2023-04-02T09:02:41.643Z,999.05
2023-04-02T09:03:41.578Z,999.07
2023-04-02T09:04:41.678Z,999.06
2023-04-02T09:05:41.583Z,999.12
2023-04-02T09:06:41.573Z,999.13
2023-04-02T09:07:41.534Z,999.15
2023-04-02T09:08:41.553Z,999.17
2023-04-02T09:09:41.557Z,999.19
2023-04-02T09:10:41.537Z,999.18
2023-04-02T09:11:41.495Z,999.23
2023-04-02T09:12:42.309Z,999.25
2023-04-02T09:13:41.477Z,999.27
2023-04-02T09:14:41.540Z,999.29
2023-04-02T09:15:41.486Z,999.34
2023-04-02T09:16:41.474Z,999.35
2023-04-02T09:17:52.940Z,999.36
2023-04-02T09:18:41.476Z,999.37
2023-04-02T09:19:41.422Z,999.41
2023-04-02T09:20:41.458Z,999.42
2023-04-02T09:21:41.413Z,999.43
2023-04-02T09:22:41.406Z,999.43
2023-04-02T09:23:41.379Z,999.46
2023-04-02T09:24:41.400Z,999.48
2023-04-02T09:26:41.383Z,999.52
2023-04-02T09:27:41.334Z,999.53
2023-04-02T09:28:41.347Z,999.58
2023-04-02T09:29:41.310Z,999.60
2023-04-02T09:30:41.360Z,999.64
2023-04-02T09:31:41.324Z,999.62
2023-04-02T09:32:41.370Z,999.66
2023-04-02T09:33:41.264Z,999.68
2023-04-02T09:34:41.283Z,999.68
2023-04-02T09:35:41.474Z,999.70
2023-04-02T09:36:41.301Z,999.70
2023-04-02T09:37:41.229Z,999.72
2023-04-02T09:38:41.258Z,999.72
2023-04-02T09:39:41.217Z,999.72
2023-04-02T09:40:41.218Z,999.73
2023-04-02T09:41:41.211Z,999.76
2023-04-02T09:42:41.207Z,999.78
2023-04-02T09:43:41.176Z,999.81
2023-04-02T09:44:41.175Z,999.79
2023-04-02T09:45:41.144Z,999.84
2023-04-02T09:46:41.179Z,999.84
2023-04-02T09:47:42.488Z,999.87
2023-04-02T09:48:41.150Z,999.88
2023-04-02T09:49:41.098Z,999.86
2023-04-02T09:50:41.132Z,999.91
2023-04-02T09:51:41.104Z,999.88
2023-04-02T09:52:41.103Z,999.95
2023-04-02T09:53:42.569Z,999.96
2023-04-02T09:54:41.080Z,1000.02
2023-04-02T09:55:41.045Z,1000.04
2023-04-02T09:56:41.079Z,1000.03
2023-04-02T09:57:41.048Z,1000.06
2023-04-02T09:58:41.059Z,1000.07
2023-04-02T09:59:41.001Z,1000.11
2023-04-02T10:00:42.188Z,1000.11
2023-04-02T10:01:41.002Z,1000.14
2023-04-02T10:02:41.038Z,1000.12
2023-04-02T10:03:40.965Z,1000.16
2023-04-02T10:04:41.047Z,1000.15
2023-04-02T10:05:41.786Z,1000.21
2023-04-02T10:06:40.949Z,1000.21
2023-04-02T10:07:40.908Z,1000.22
2023-04-02T10:08:40.952Z,1000.20
2023-04-02T10:09:40.930Z,1000.28
2023-04-02T10:10:40.912Z,1000.25
2023-04-02T10:11:46.584Z,1000.28
2023-04-02T10:12:40.963Z,1000.29
2023-04-02T10:13:40.853Z,1000.34
2023-04-02T10:14:40.864Z,1000.43
2023-04-02T10:15:40.832Z,1000.39
2023-04-02T10:16:40.896Z,1000.37
2023-04-02T10:17:40.854Z,1000.38
2023-04-02T10:18:40.849Z,1000.46
2023-04-02T10:19:40.789Z,1000.45
2023-04-02T10:20:50.616Z,1000.46
2023-04-02T10:21:40.771Z,1000.44
2023-04-02T10:22:40.946Z,1000.45
2023-04-02T10:23:40.746Z,1000.46
2023-04-02T10:24:40.777Z,1000.46
2023-04-02T10:25:40.791Z,1000.46
2023-04-02T10:26:40.741Z,1000.47
2023-04-02T10:27:40.710Z,1000.49
2023-04-02T10:28:40.716Z,1000.50
2023-04-02T10:29:40.693Z,1000.51
2023-04-02T10:30:40.756Z,1000.51
2023-04-02T10:31:40.669Z,1000.54
2023-04-02T10:32:40.753Z,1000.58
2023-04-02T10:33:40.653Z,1000.60
2023-04-02T10:34:42.862Z,1000.62
2023-04-02T10:35:40.668Z,1000.69
2023-04-02T10:36:40.647Z,1000.66
2023-04-02T10:37:40.599Z,1000.69
2023-04-02T10:38:40.621Z,1000.69
2023-04-02T10:39:40.594Z,1000.74
2023-04-02T10:40:40.631Z,1000.77
2023-04-02T10:41:40.565Z,1000.75
2023-04-02T10:42:40.581Z,1000.78
2023-04-02T10:43:40.546Z,1000.72
2023-04-02T10:44:40.564Z,1000.78
2023-04-02T10:45:40.552Z,1000.79
2023-04-02T10:46:40.612Z,1000.83
2023-04-02T10:47:40.554Z,1000.82
2023-04-02T10:48:40.547Z,1000.83
2023-04-02T10:49:40.515Z,1000.85
2023-04-02T10:50:40.497Z,1000.84
2023-04-02T10:51:40.490Z,1000.85
2023-04-02T10:52:40.503Z,1000.87
2023-04-02T10:53:40.437Z,1000.82
2023-04-02T10:54:40.454Z,1000.89
2023-04-02T10:55:40.451Z,1000.90
2023-04-02T10:56:49.981Z,1000.90
2023-04-02T10:57:40.533Z,1000.92
2023-04-02T10:58:40.420Z,1000.91
2023-04-02T10:59:40.416Z,1000.93
2023-04-02T11:00:40.395Z,1000.95
2023-04-02T11:01:40.409Z,1000.97
2023-04-02T11:02:40.599Z,1001.01
2023-04-02T11:03:40.654Z,1001.03
2023-04-02T11:04:40.352Z,1001.05
2023-04-02T11:05:40.334Z,1001.03
2023-04-02T11:06:40.338Z,1001.04
2023-04-02T11:07:40.297Z,1001.01
2023-04-02T11:08:40.362Z,1001.04
2023-04-02T11:09:40.274Z,1001.03
2023-04-02T11:10:40.299Z,1001.05
2023-04-02T11:11:40.251Z,1001.12
2023-04-02T11:12:42.066Z,1001.10
2023-04-02T11:13:40.253Z,1001.09
2023-04-02T11:14:40.260Z,1001.09
2023-04-02T11:15:40.254Z,1001.13
2023-04-02T11:16:44.070Z,1001.14
2023-04-02T11:17:40.209Z,1001.15
2023-04-02T11:18:40.241Z,1001.18
2023-04-02T11:19:40.169Z,1001.20
2023-04-02T11:20:40.225Z,1001.21
2023-04-02T11:21:51.071Z,1001.22
2023-04-02T11:22:40.167Z,1001.26
2023-04-02T11:23:40.163Z,1001.27
2023-04-02T11:24:40.133Z,1001.31
2023-04-02T11:25:40.116Z,1001.32
2023-04-02T11:26:40.140Z,1001.35
2023-04-02T11:27:40.106Z,1001.32
2023-04-02T11:28:40.101Z,1001.38
2023-04-02T11:29:40.088Z,1001.39
2023-04-02T11:30:40.108Z,1001.40
2023-04-02T11:31:40.103Z,1001.44
2023-04-02T11:32:40.106Z,1001.47
2023-04-02T11:33:43.093Z,1001.48
2023-04-02T11:34:40.060Z,1001.48
2023-04-02T11:35:40.266Z,1001.50
2023-04-02T11:36:40.015Z,1001.50
2023-04-02T11:37:39.998Z,1001.52
2023-04-02T11:38:40.011Z,1001.56
2023-04-02T11:39:39.987Z,1001.57
2023-04-02T11:40:39.979Z,1001.59
2023-04-02T11:41:39.949Z,1001.60
2023-04-02T11:42:39.985Z,1001.60
2023-04-02T11:43:39.921Z,1001.60
2023-04-02T11:44:39.947Z,1001.59
2023-04-02T11:45:51.895Z,1001.57
2023-04-02T11:46:39.956Z,1001.56
2023-04-02T11:47:39.908Z,1001.60
2023-04-02T11:48:39.921Z,1001.56
2023-04-02T11:49:40.040Z,1001.54
2023-04-02T11:50:39.876Z,1001.60
2023-04-02T11:51:39.838Z,1001.60
2023-04-02T11:52:39.872Z,1001.58
2023-04-02T11:53:39.850Z,1001.60
2023-04-02T11:54:39.831Z,1001.62
2023-04-02T11:55:39.994Z,1001.62
2023-04-02T11:56:39.815Z,1001.62
2023-04-02T11:57:39.889Z,1001.63
2023-04-02T11:58:39.811Z,1001.63
2023-04-02T11:59:39.765Z,1001.64
2023-04-02T12:00:39.769Z,1001.63
2023-04-02T12:01:39.776Z,1001.69
2023-04-02T12:02:39.849Z,1001.69
2023-04-02T12:03:39.712Z,1001.67
2023-04-02T12:04:39.757Z,1001.73
2023-04-02T12:05:39.771Z,1001.72
2023-04-02T12:06:39.718Z,1001.76
2023-04-02T12:07:39.673Z,1001.74
2023-04-02T12:08:47.460Z,1001.76
2023-04-02T12:09:39.684Z,1001.78
2023-04-02T12:10:39.663Z,1001.79
2023-04-02T12:11:39.626Z,1001.83
2023-04-02T12:12:39.659Z,1001.85
2023-04-02T12:13:39.641Z,1001.88
2023-04-02T12:14:39.625Z,1001.92
2023-04-02T12:15:39.584Z,1001.92
2023-04-02T12:16:39.633Z,1001.95
2023-04-02T12:17:39.586Z,1001.98
2023-04-02T12:18:39.586Z,1002.00
2023-04-02T12:19:39.571Z,1002.01
2023-04-02T12:20:39.569Z,1002.03
2023-04-02T12:21:39.527Z,1002.05
2023-04-02T12:22:39.556Z,1002.07
2023-04-02T12:23:39.503Z,1002.11
2023-04-02T12:24:39.526Z,1002.09